createdAt,value
2017-09-25T00:00:46.627Z,82.74
2017-09-25T00:03:14.965Z,82.65
2017-09-25T00:05:43.296Z,82.70
2017-09-25T00:08:11.652Z,82.56
2017-09-25T00:10:40.759Z,82.65
2017-09-25T00:13:09.861Z,82.71
2017-09-25T00:15:38.994Z,82.78
2017-09-25T00:18:07.335Z,82.80
2017-09-25T00:20:36.442Z,82.96
2017-09-25T00:23:04.818Z,82.95
2017-09-25T00:25:33.152Z,83.26
2017-09-25T00:28:01.492Z,83.76
2017-09-25T00:30:29.859Z,83.33
2017-09-25T00:32:58.961Z,83.36
2017-09-25T00:35:27.305Z,83.42
2017-09-25T00:37:55.672Z,83.28
2017-09-25T00:40:24.038Z,83.18
2017-09-25T00:42:52.362Z,83.03
2017-09-25T00:45:22.419Z,83.09
2017-09-25T00:47:50.747Z,82.92
2017-09-25T00:50:19.084Z,83.00
2017-09-25T00:53:05.387Z,82.96
2017-09-25T00:55:51.881Z,82.86
2017-09-25T00:58:20.263Z,83.09
2017-09-25T01:01:06.351Z,83.10
2017-09-25T01:03:52.415Z,83.35
2017-09-25T01:06:30.692Z,83.69
2017-09-25T01:08:59.056Z,84.16
2017-09-25T01:11:27.386Z,84.12
2017-09-25T01:13:56.513Z,84.21
2017-09-25T01:16:24.890Z,84.35
2017-09-25T01:18:53.989Z,84.96
2017-09-25T01:21:23.090Z,85.09
2017-09-25T01:23:52.218Z,85.15
2017-09-25T01:26:20.553Z,85.29
2017-09-25T01:28:49.651Z,85.16
2017-09-25T01:31:18.805Z,85.12
2017-09-25T01:33:47.173Z,84.97
2017-09-25T01:36:15.502Z,84.81
2017-09-25T01:38:43.874Z,84.42
2017-09-25T01:41:12.209Z,84.03
2017-09-25T01:43:40.546Z,83.77
2017-09-25T01:46:09.667Z,83.59
2017-09-25T01:48:37.998Z,83.79
2017-09-25T01:51:06.331Z,83.54
2017-09-25T01:53:34.691Z,83.26
2017-09-25T01:56:03.796Z,83.13
2017-09-25T01:58:32.895Z,83.40
2017-09-25T02:01:02.030Z,83.48
2017-09-25T02:03:30.362Z,83.58
2017-09-25T02:05:59.466Z,83.48
2017-09-25T02:08:28.600Z,83.92
2017-09-25T02:10:56.933Z,84.04
2017-09-25T02:13:26.035Z,84.57
2017-09-25T02:15:55.156Z,84.49
2017-09-25T02:18:23.483Z,84.13
2017-09-25T02:20:51.814Z,84.05
2017-09-25T02:23:20.236Z,84.40
2017-09-25T02:25:48.576Z,84.36
2017-09-25T02:28:16.919Z,85.01
2017-09-25T02:30:45.276Z,84.59
2017-09-25T02:33:13.611Z,84.71
2017-09-25T02:35:41.961Z,84.82
2017-09-25T02:38:10.332Z,84.48
2017-09-25T02:40:38.681Z,84.75
2017-09-25T02:43:07.060Z,84.63
2017-09-25T02:45:35.422Z,84.41
2017-09-25T02:48:03.783Z,84.23
2017-09-25T02:50:32.878Z,83.94
2017-09-25T02:53:02.005Z,84.04
2017-09-25T02:55:30.343Z,83.72
2017-09-25T02:57:59.475Z,83.54
2017-09-25T03:00:27.875Z,83.81
2017-09-25T03:02:56.199Z,83.52
2017-09-25T03:05:24.548Z,83.80
2017-09-25T03:07:52.925Z,84.16
2017-09-25T03:10:21.271Z,84.21
2017-09-25T03:12:49.613Z,84.82
2017-09-25T03:15:17.996Z,85.08
2017-09-25T03:17:46.353Z,84.59
2017-09-25T03:20:14.722Z,84.44
2017-09-25T03:22:43.100Z,84.39
2017-09-25T03:25:11.434Z,84.25
2017-09-25T03:27:40.544Z,84.47
2017-09-25T03:30:09.694Z,84.44
2017-09-25T03:32:38.032Z,84.17
2017-09-25T03:35:06.372Z,83.82
2017-09-25T03:37:34.727Z,84.25
2017-09-25T03:40:03.050Z,83.82
2017-09-25T03:42:32.148Z,83.87
2017-09-25T03:45:01.291Z,83.16
2017-09-25T03:47:29.627Z,83.15
2017-09-25T03:49:58.724Z,83.53
2017-09-25T03:52:27.847Z,83.95
2017-09-25T03:54:56.185Z,84.47
2017-09-25T03:57:24.520Z,84.94
2017-09-25T03:59:52.902Z,84.18
2017-09-25T04:02:21.231Z,84.03
2017-09-25T04:04:49.567Z,83.85
2017-09-25T04:07:17.936Z,84.05
2017-09-25T04:09:46.282Z,83.86
2017-09-25T04:12:15.391Z,83.96
2017-09-25T04:14:44.535Z,83.95
2017-09-25T04:17:12.875Z,83.79
2017-09-25T04:19:41.984Z,83.99
2017-09-25T04:22:10.359Z,84.23
2017-09-25T04:24:38.710Z,84.57
2017-09-25T04:27:07.059Z,84.42
2017-09-25T04:29:36.348Z,84.21
2017-09-25T04:32:04.675Z,84.05
2017-09-25T04:34:33.006Z,83.78
2017-09-25T04:37:01.387Z,83.77
2017-09-25T04:39:29.735Z,84.03
2017-09-25T04:41:58.846Z,84.05
2017-09-25T04:44:27.206Z,84.00
2017-09-25T04:46:56.331Z,84.08
2017-09-25T04:49:24.675Z,83.75
2017-09-25T04:51:53.826Z,83.95
2017-09-25T04:54:22.162Z,83.80
2017-09-25T04:56:51.260Z,83.65
2017-09-25T04:59:20.397Z,83.48
2017-09-25T05:01:48.743Z,83.48
2017-09-25T05:04:17.840Z,83.48
2017-09-25T05:06:46.977Z,83.25
2017-09-25T05:09:15.311Z,83.16
2017-09-25T05:11:44.412Z,83.17
2017-09-25T05:14:13.538Z,83.18
2017-09-25T05:16:41.881Z,83.15
2017-09-25T05:19:10.319Z,83.29
2017-09-25T05:21:38.684Z,83.31
2017-09-25T05:24:07.025Z,83.21
2017-09-25T05:26:36.129Z,83.29
2017-09-25T05:29:05.271Z,83.56
2017-09-25T05:31:33.615Z,83.33
2017-09-25T05:34:02.721Z,83.56
2017-09-25T05:36:31.855Z,83.33
2017-09-25T05:39:00.197Z,83.07
2017-09-25T05:41:28.564Z,83.19
2017-09-25T05:43:57.856Z,83.18
2017-09-25T05:46:26.190Z,83.28
2017-09-25T05:48:54.521Z,83.24
2017-09-25T05:51:22.884Z,83.06
2017-09-25T05:53:51.219Z,83.15
2017-09-25T05:56:19.535Z,83.50
2017-09-25T05:58:47.895Z,83.60
2017-09-25T06:01:16.219Z,83.51
2017-09-25T06:03:44.562Z,83.42
2017-09-25T06:06:12.918Z,83.63
2017-09-25T06:08:41.383Z,83.71
2017-09-25T06:11:10.476Z,83.78
2017-09-25T06:13:39.608Z,83.46
2017-09-25T06:16:07.976Z,83.37
2017-09-25T06:18:36.302Z,83.31
2017-09-25T06:21:04.680Z,82.93
2017-09-25T06:23:33.026Z,82.73
2017-09-25T06:26:01.400Z,83.11
2017-09-25T06:28:29.829Z,82.73
2017-09-25T06:30:58.291Z,82.33
2017-09-25T06:33:27.486Z,82.20
2017-09-25T06:35:56.076Z,82.18
2017-09-25T06:38:24.419Z,82.03
2017-09-25T06:40:52.750Z,82.12
2017-09-25T06:43:21.104Z,82.11
2017-09-25T06:45:49.438Z,82.30
2017-09-25T06:48:18.535Z,82.36
2017-09-25T06:50:47.657Z,81.96
2017-09-25T06:53:15.979Z,82.00
2017-09-25T06:55:44.488Z,81.53
2017-09-25T06:58:12.847Z,81.39
2017-09-25T07:00:41.183Z,81.09
2017-09-25T07:03:09.514Z,80.86
2017-09-25T07:05:37.872Z,80.65
2017-09-25T07:08:06.200Z,80.29
2017-09-25T07:10:35.297Z,80.10
2017-09-25T07:13:04.431Z,79.54
2017-09-25T07:15:32.766Z,79.13
2017-09-25T07:18:01.101Z,79.18
2017-09-25T07:20:29.456Z,79.24
2017-09-25T07:22:57.800Z,78.98
2017-09-25T07:25:26.131Z,78.90
2017-09-25T07:27:54.491Z,78.90
2017-09-25T07:30:23.588Z,78.63
2017-09-25T07:32:52.679Z,78.48
2017-09-25T07:35:21.056Z,78.30
2017-09-25T07:37:50.176Z,77.82
2017-09-25T07:40:18.520Z,77.98
2017-09-25T07:42:46.871Z,77.68
2017-09-25T07:45:15.207Z,77.59
2017-09-25T07:47:43.544Z,77.89
2017-09-25T07:50:11.965Z,78.34
2017-09-25T07:52:41.065Z,78.34
2017-09-25T07:55:09.407Z,79.17
2017-09-25T07:57:37.768Z,78.64
2017-09-25T08:00:06.136Z,78.47
2017-09-25T08:02:34.470Z,78.92
2017-09-25T08:05:03.612Z,79.29
2017-09-25T08:07:31.943Z,78.87
2017-09-25T08:10:01.047Z,78.73
2017-09-25T08:12:30.188Z,78.20
2017-09-25T08:14:58.527Z,77.78
2017-09-25T08:17:27.622Z,78.38
2017-09-25T08:19:56.740Z,77.65
2017-09-25T08:22:25.076Z,77.44
2017-09-25T08:24:53.420Z,76.57
2017-09-25T08:27:21.775Z,76.09
2017-09-25T08:29:50.171Z,75.54
2017-09-25T08:32:18.500Z,74.63
2017-09-25T08:34:46.887Z,74.39
2017-09-25T08:37:15.219Z,73.85
2017-09-25T08:39:43.551Z,73.43
2017-09-25T08:42:11.906Z,73.41
2017-09-25T08:44:40.269Z,73.19
2017-09-25T08:47:08.618Z,72.46
2017-09-25T08:49:37.756Z,72.98
2017-09-25T08:52:06.089Z,72.61
2017-09-25T08:54:35.217Z,72.52
2017-09-25T08:57:03.590Z,72.87
2017-09-25T08:59:31.961Z,71.81
2017-09-25T09:02:00.301Z,71.59
2017-09-25T09:04:28.663Z,71.57
2017-09-25T09:06:57.003Z,71.05
2017-09-25T09:09:25.337Z,70.99
2017-09-25T09:11:54.556Z,70.22
2017-09-25T09:14:22.883Z,70.33
2017-09-25T09:16:51.240Z,70.38
2017-09-25T09:19:19.576Z,69.98
2017-09-25T09:21:47.899Z,69.94
2017-09-25T09:24:17.023Z,69.92
2017-09-25T09:26:45.355Z,70.60
2017-09-25T09:29:13.705Z,70.37
2017-09-25T09:31:42.651Z,70.42
2017-09-25T09:34:10.987Z,71.25
2017-09-25T09:36:39.331Z,71.07
2017-09-25T09:39:07.691Z,70.72
2017-09-25T09:41:36.051Z,70.23
2017-09-25T09:44:05.166Z,71.02
2017-09-25T09:46:34.283Z,69.62
2017-09-25T09:49:02.638Z,68.60
2017-09-25T09:51:31.780Z,69.22
2017-09-25T09:54:00.136Z,67.61
2017-09-25T09:56:28.480Z,68.42
2017-09-25T09:58:56.865Z,68.34
2017-09-25T10:01:25.247Z,67.40
2017-09-25T10:03:55.584Z,66.33
2017-09-25T10:06:24.714Z,66.28
2017-09-25T10:08:53.067Z,66.11
2017-09-25T10:11:22.177Z,66.55
2017-09-25T10:13:50.548Z,65.42
2017-09-25T10:16:19.651Z,64.93
2017-09-25T10:18:48.757Z,65.87
2017-09-25T10:21:17.113Z,66.33
2017-09-25T10:23:46.236Z,66.28
2017-09-25T10:26:14.576Z,66.10
2017-09-25T10:28:42.933Z,64.98
2017-09-25T10:31:11.272Z,65.48
2017-09-25T10:33:39.605Z,66.13
2017-09-25T10:36:07.963Z,65.45
2017-09-25T10:38:36.297Z,65.22
2017-09-25T10:41:05.425Z,64.59
2017-09-25T10:43:33.769Z,65.14
2017-09-25T10:46:02.134Z,66.36
2017-09-25T10:48:30.519Z,66.67
2017-09-25T10:50:58.855Z,67.45
2017-09-25T10:53:27.189Z,66.81
2017-09-25T10:55:57.562Z,66.74
2017-09-25T10:58:25.924Z,66.79
2017-09-25T11:00:54.285Z,66.51
2017-09-25T11:03:23.391Z,67.10
2017-09-25T11:05:51.766Z,67.69
2017-09-25T11:08:20.914Z,67.30
2017-09-25T11:10:49.256Z,66.94
2017-09-25T11:13:18.363Z,66.36
2017-09-25T11:15:46.737Z,66.62
2017-09-25T11:18:15.072Z,65.39
2017-09-25T11:20:43.408Z,64.02
2017-09-25T11:23:11.802Z,64.67
2017-09-25T11:25:40.152Z,64.28
2017-09-25T11:28:09.267Z,62.88
2017-09-25T11:30:37.631Z,63.52
2017-09-25T11:33:06.738Z,62.46
2017-09-25T11:35:35.073Z,62.29
2017-09-25T11:38:03.459Z,60.80
2017-09-25T11:40:31.819Z,60.49
2017-09-25T11:43:00.148Z,59.04
2017-09-25T11:45:29.284Z,58.11
2017-09-25T11:47:57.871Z,61.37
2017-09-25T11:50:26.208Z,60.65
2017-09-25T11:52:55.343Z,60.57
2017-09-25T11:55:23.691Z,60.59
2017-09-25T11:57:52.815Z,61.58
2017-09-25T12:00:21.172Z,62.49
2017-09-25T12:02:50.288Z,61.96
2017-09-25T12:05:18.638Z,62.11
2017-09-25T12:07:47.020Z,62.97
2017-09-25T12:10:16.142Z,62.18
2017-09-25T12:12:44.480Z,61.36
2017-09-25T12:15:12.861Z,60.82
2017-09-25T12:17:41.193Z,60.57
2017-09-25T12:20:09.524Z,60.21
2017-09-25T12:22:37.888Z,59.53
2017-09-25T12:25:06.224Z,60.06
2017-09-25T12:27:34.568Z,60.46
2017-09-25T12:30:02.938Z,61.69
2017-09-25T12:32:31.276Z,61.51
2017-09-25T12:34:59.609Z,61.66
2017-09-25T12:37:27.971Z,61.70
2017-09-25T12:39:56.301Z,62.00
2017-09-25T12:42:24.638Z,62.44
2017-09-25T12:44:53.001Z,62.99
2017-09-25T12:47:21.328Z,62.56
2017-09-25T12:49:50.429Z,62.99
2017-09-25T12:52:19.594Z,62.19
2017-09-25T12:54:47.959Z,62.08
2017-09-25T12:57:16.291Z,62.73
2017-09-25T13:02:27.393Z,62.35
2017-09-25T13:04:55.800Z,64.46
2017-09-25T13:07:24.131Z,65.29
2017-09-25T13:09:53.482Z,64.70
2017-09-25T13:12:21.852Z,64.46
2017-09-25T13:14:50.188Z,64.31
2017-09-25T13:17:18.518Z,64.51
2017-09-25T13:19:46.879Z,64.45
2017-09-25T13:22:15.212Z,64.30
2017-09-25T13:24:43.555Z,64.81
2017-09-25T13:27:11.927Z,65.29
2017-09-25T13:29:40.343Z,65.48
2017-09-25T13:32:08.701Z,65.95
2017-09-25T13:34:37.037Z,66.38
2017-09-25T13:37:05.369Z,67.49
2017-09-25T13:39:33.723Z,67.20
2017-09-25T13:42:02.066Z,67.30
2017-09-25T13:44:30.401Z,67.36
2017-09-25T13:46:58.761Z,67.40
2017-09-25T13:49:27.135Z,67.36
2017-09-25T13:51:57.025Z,66.72
2017-09-25T13:54:25.364Z,66.64
2017-09-25T13:56:53.691Z,66.34
2017-09-25T14:04:29.156Z,64.64
2017-09-25T14:06:57.514Z,64.21
2017-09-25T14:09:25.860Z,63.26
2017-09-25T14:11:54.268Z,62.24
2017-09-25T14:14:22.610Z,62.19
2017-09-25T14:16:51.727Z,62.82
2017-09-25T14:19:20.083Z,62.84
2017-09-25T14:21:49.184Z,61.72
2017-09-25T14:24:18.284Z,62.96
2017-09-25T14:26:47.427Z,61.71
2017-09-25T14:29:15.795Z,62.22
2017-09-25T14:31:44.128Z,61.86
2017-09-25T14:34:12.484Z,60.44
2017-09-25T14:36:40.820Z,61.41
2017-09-25T14:39:09.152Z,62.26
2017-09-25T14:41:37.508Z,62.74
2017-09-25T14:44:05.882Z,62.68
2017-09-25T14:46:34.243Z,62.63
2017-09-25T14:49:02.613Z,62.48
2017-09-25T14:51:31.755Z,63.35
2017-09-25T14:54:00.099Z,62.99
2017-09-25T14:56:28.476Z,61.93
2017-09-25T14:58:56.822Z,61.62
2017-09-25T15:01:25.151Z,62.19
2017-09-25T15:03:53.508Z,62.04
2017-09-25T15:06:22.607Z,61.69
2017-09-25T15:08:51.735Z,62.05
2017-09-25T15:11:20.077Z,61.91
2017-09-25T15:13:49.186Z,62.22
2017-09-25T15:16:18.332Z,62.48
2017-09-25T15:18:46.726Z,63.52
2017-09-25T15:21:15.260Z,63.30
2017-09-25T15:23:43.626Z,62.97
2017-09-25T15:26:12.736Z,63.25
2017-09-25T15:28:41.843Z,63.86
2017-09-25T15:31:10.223Z,63.65
2017-09-25T15:33:38.555Z,63.66
2017-09-25T15:36:06.890Z,64.98
2017-09-25T15:38:35.262Z,66.17
2017-09-25T15:41:03.612Z,64.97
2017-09-25T15:43:32.775Z,64.45
2017-09-25T15:46:01.164Z,64.95
2017-09-25T15:48:29.508Z,65.03
2017-09-25T15:50:57.849Z,66.05
2017-09-25T15:53:26.287Z,65.64
2017-09-25T15:55:54.643Z,66.28
2017-09-25T15:58:22.971Z,66.40
2017-09-25T16:00:51.329Z,67.01
2017-09-25T16:03:19.667Z,67.62
2017-09-25T16:05:48.772Z,67.39
2017-09-25T16:08:17.900Z,67.39
2017-09-25T16:10:46.239Z,67.89
2017-09-25T16:13:15.347Z,67.97
2017-09-25T16:15:46.256Z,68.50
2017-09-25T16:18:14.680Z,69.03
2017-09-25T16:20:43.011Z,69.13
2017-09-25T16:23:11.381Z,69.38
2017-09-25T16:25:39.715Z,69.48
2017-09-25T16:28:08.112Z,69.54
2017-09-25T16:30:36.450Z,69.49
2017-09-25T16:33:04.827Z,70.53
2017-09-25T16:35:33.174Z,71.71
2017-09-25T16:38:01.545Z,71.81
2017-09-25T16:40:29.941Z,72.68
2017-09-25T16:42:58.311Z,72.20
2017-09-25T16:45:26.682Z,72.51
2017-09-25T16:47:55.039Z,72.57
2017-09-25T16:50:24.165Z,72.84
2017-09-25T16:52:52.504Z,72.95
2017-09-25T16:55:21.650Z,73.49
2017-09-25T16:57:49.980Z,73.81
2017-09-25T17:00:19.107Z,74.29
2017-09-25T17:02:47.473Z,74.48
2017-09-25T17:05:16.568Z,74.92
2017-09-25T17:07:44.911Z,75.30
2017-09-25T17:10:13.272Z,75.87
2017-09-25T17:12:41.654Z,76.22
2017-09-25T17:15:09.975Z,76.33
2017-09-25T17:17:39.137Z,76.47
2017-09-25T17:20:07.473Z,76.62
2017-09-25T17:22:36.598Z,77.41
2017-09-25T17:25:04.975Z,77.99
2017-09-25T17:27:33.345Z,78.48
2017-09-25T17:30:02.442Z,78.40
2017-09-25T17:32:30.802Z,78.59
2017-09-25T17:34:59.910Z,78.79
2017-09-25T17:37:28.265Z,79.27
2017-09-25T17:39:56.629Z,79.69
2017-09-25T17:42:24.967Z,80.88
2017-09-25T17:44:53.330Z,81.77
2017-09-25T17:47:22.449Z,82.25
2017-09-25T17:49:50.801Z,81.68
2017-09-25T17:52:19.913Z,81.33
2017-09-25T17:54:48.316Z,80.86
2017-09-25T17:57:16.676Z,80.67
2017-09-25T17:59:45.016Z,81.55
2017-09-25T18:02:13.387Z,81.90
2017-09-25T18:04:41.722Z,82.12
2017-09-25T18:07:10.102Z,82.68
2017-09-25T18:09:38.436Z,82.34
2017-09-25T18:12:06.776Z,82.66
2017-09-25T18:14:35.148Z,83.50
2017-09-25T18:17:03.500Z,83.70
2017-09-25T18:19:31.832Z,84.01
2017-09-25T18:22:00.992Z,84.17
2017-09-25T18:24:30.105Z,84.02
2017-09-25T18:26:58.438Z,85.79
2017-09-25T18:29:26.812Z,85.89
2017-09-25T18:31:55.157Z,87.14
2017-09-25T18:34:23.494Z,87.87
2017-09-25T18:36:52.634Z,87.10
2017-09-25T18:39:20.975Z,86.80
2017-09-25T18:41:50.088Z,87.13
2017-09-25T18:44:18.473Z,86.63
2017-09-25T18:46:46.808Z,86.10
2017-09-25T18:49:15.212Z,86.21
2017-09-25T18:51:44.327Z,86.34
2017-09-25T18:54:13.595Z,86.34
2017-09-25T18:56:41.965Z,87.05
2017-09-25T18:59:10.313Z,87.05
2017-09-25T19:01:38.644Z,86.35
2017-09-25T19:04:07.020Z,85.57
2017-09-25T19:06:36.161Z,85.79
2017-09-25T19:09:04.560Z,86.05
2017-09-25T19:11:32.911Z,86.08
2017-09-25T19:14:02.007Z,85.68
2017-09-25T19:16:31.157Z,85.94
2017-09-25T19:18:59.512Z,85.68
2017-09-25T19:21:27.882Z,85.85
2017-09-25T19:23:57.293Z,86.25
2017-09-25T19:26:26.463Z,87.33
2017-09-25T19:28:55.598Z,88.50
2017-09-25T19:31:23.940Z,88.20
2017-09-25T19:33:53.058Z,89.73
2017-09-25T19:36:21.429Z,88.78
2017-09-25T19:38:50.544Z,88.58
2017-09-25T19:41:19.204Z,87.59
2017-09-25T19:43:48.545Z,87.24
2017-09-25T19:46:16.911Z,86.64
2017-09-25T19:48:55.215Z,86.28
2017-09-25T19:51:24.760Z,85.69
2017-09-25T19:53:54.478Z,85.07
2017-09-25T19:56:22.815Z,84.89
2017-09-25T19:58:51.367Z,85.15
2017-09-25T20:01:20.020Z,85.50
2017-09-25T20:03:48.362Z,86.86
2017-09-25T20:06:18.723Z,86.67
2017-09-25T20:08:47.251Z,86.28
2017-09-25T20:11:16.402Z,85.85
2017-09-25T20:13:45.024Z,85.51
2017-09-25T20:16:25.305Z,86.27
2017-09-25T20:18:54.411Z,85.82
2017-09-25T20:21:23.613Z,87.32
2017-09-25T20:23:52.753Z,90.13
2017-09-25T20:26:21.195Z,89.02
2017-09-25T20:28:50.323Z,88.26
2017-09-25T20:31:18.748Z,87.42
2017-09-25T20:33:47.104Z,87.02
2017-09-25T20:36:15.447Z,88.02
2017-09-25T20:38:43.931Z,87.31
2017-09-25T20:41:13.242Z,86.72
2017-09-25T20:43:41.595Z,86.28
2017-09-25T20:46:10.739Z,85.92
2017-09-25T20:48:39.087Z,85.68
2017-09-25T20:51:08.203Z,85.59
2017-09-25T20:53:36.572Z,85.64
2017-09-25T20:56:04.920Z,85.51
2017-09-25T20:58:33.288Z,85.48
2017-09-25T21:01:01.670Z,85.57
2017-09-25T21:03:30.018Z,85.52
2017-09-25T21:05:58.417Z,85.25
2017-09-25T21:08:26.832Z,85.04
2017-09-25T21:10:55.207Z,85.06
2017-09-25T21:13:23.612Z,85.19
2017-09-25T21:15:52.000Z,85.62
2017-09-25T21:18:20.655Z,86.54
2017-09-25T21:20:49.036Z,85.77
2017-09-25T21:23:17.374Z,85.62
2017-09-25T21:25:46.600Z,85.50
2017-09-25T21:28:15.015Z,85.27
2017-09-25T21:30:44.121Z,85.81
2017-09-25T21:33:12.501Z,85.48
2017-09-25T21:35:41.621Z,85.23
2017-09-25T21:38:09.993Z,85.14
2017-09-25T21:40:38.356Z,85.39
2017-09-25T21:43:07.452Z,86.01
2017-09-25T21:45:36.549Z,86.39
2017-09-25T21:48:05.706Z,87.18
2017-09-25T21:50:34.069Z,87.99
2017-09-25T21:53:02.447Z,91.02
2017-09-25T21:55:30.787Z,92.31
2017-09-25T21:57:59.924Z,92.50
2017-09-25T22:00:28.405Z,92.75
2017-09-25T22:02:56.803Z,93.65
2017-09-25T22:05:25.243Z,93.74
2017-09-25T22:07:53.633Z,92.92
2017-09-25T22:10:22.622Z,92.53
2017-09-25T22:12:51.788Z,92.42
2017-09-25T22:15:20.136Z,91.98
2017-09-25T22:17:48.552Z,91.69
2017-09-25T22:20:16.937Z,91.86
2017-09-25T22:22:45.280Z,91.72
2017-09-25T22:25:13.619Z,91.71
2017-09-25T22:27:42.748Z,92.01
2017-09-25T22:30:11.134Z,91.85
2017-09-25T22:32:39.616Z,91.71
2017-09-25T22:35:08.120Z,91.56
2017-09-25T22:37:37.263Z,91.15
2017-09-25T22:40:06.501Z,90.89
2017-09-25T22:42:38.478Z,90.48
2017-09-25T22:45:06.957Z,89.94
2017-09-25T22:47:35.343Z,88.80
2017-09-25T22:50:03.815Z,87.74
2017-09-25T22:52:32.224Z,87.32
2017-09-25T22:55:00.612Z,86.83
2017-09-25T22:57:29.007Z,87.38
2017-09-25T22:59:58.132Z,88.39
2017-09-25T23:02:26.544Z,88.76
2017-09-25T23:05:09.789Z,89.19
2017-09-25T23:07:38.196Z,88.73
2017-09-25T23:10:08.351Z,88.63
2017-09-25T23:12:36.783Z,88.29
2017-09-25T23:15:05.153Z,88.21
2017-09-25T23:17:33.617Z,88.45
2017-09-25T23:20:01.980Z,87.89
2017-09-25T23:22:30.358Z,87.23
2017-09-25T23:24:58.704Z,88.14
2017-09-25T23:27:27.083Z,89.50
2017-09-25T23:29:59.855Z,89.91
2017-09-25T23:32:29.445Z,90.87
2017-09-25T23:34:57.811Z,91.57
2017-09-25T23:37:26.139Z,93.06
2017-09-25T23:39:54.503Z,93.02
2017-09-25T23:44:57.493Z,93.42
2017-09-25T23:47:25.847Z,92.56
2017-09-25T23:49:54.206Z,92.09
2017-09-25T23:52:23.321Z,91.32
2017-09-25T23:54:51.687Z,90.67
2017-09-25T23:57:20.811Z,90.20
2017-09-25T23:59:49.143Z,90.35
